sensor_id;sensor_type;location;lat;lon;timestamp;P1;durP1;ratioP1;P2;durP2;ratioP2
74269;SDS011;62754;48.252;11.654;2022-09-12T00:02:16;4.50;;;2.72;;
74269;SDS011;62754;48.252;11.654;2022-09-12T00:04:41;5.82;;;3.15;;
74269;SDS011;62754;48.252;11.654;2022-09-12T00:07:07;6.20;;;2.83;;
74269;SDS011;62754;48.252;11.654;2022-09-12T00:09:33;4.80;;;3.22;;
74269;SDS011;62754;48.252;11.654;2022-09-12T00:11:59;4.53;;;2.75;;
74269;SDS011;62754;48.252;11.654;2022-09-12T00:14:24;4.63;;;3.28;;
74269;SDS011;62754;48.252;11.654;2022-09-12T00:16:50;4.90;;;3.10;;
74269;SDS011;62754;48.252;11.654;2022-09-12T00:19:16;6.18;;;2.88;;
74269;SDS011;62754;48.252;11.654;2022-09-12T00:21:42;4.53;;;3.38;;
74269;SDS011;62754;48.252;11.654;2022-09-12T00:24:08;6.47;;;3.10;;
74269;SDS011;62754;48.252;11.654;2022-09-12T00:26:35;6.15;;;2.75;;
74269;SDS011;62754;48.252;11.654;2022-09-12T00:29:01;4.05;;;3.03;;
74269;SDS011;62754;48.252;11.654;2022-09-12T00:31:26;4.63;;;2.67;;
74269;SDS011;62754;48.252;11.654;2022-09-12T00:33:54;4.05;;;2.78;;
74269;SDS011;62754;48.252;11.654;2022-09-12T00:36:22;4.70;;;3.20;;
74269;SDS011;62754;48.252;11.654;2022-09-12T00:38:49;4.95;;;3.17;;
74269;SDS011;62754;48.252;11.654;2022-09-12T00:41:17;3.55;;;2.47;;
74269;SDS011;62754;48.252;11.654;2022-09-12T00:43:44;5.65;;;2.83;;
74269;SDS011;62754;48.252;11.654;2022-09-12T00:51:54;7.38;;;4.25;;
74269;SDS011;62754;48.252;11.654;2022-09-12T00:54:25;6.53;;;2.58;;
74269;SDS011;62754;48.252;11.654;2022-09-12T00:56:56;4.35;;;2.90;;
74269;SDS011;62754;48.252;11.654;2022-09-12T00:59:31;6.47;;;3.00;;
74269;SDS011;62754;48.252;11.654;2022-09-12T01:02:04;4.43;;;3.03;;
74269;SDS011;62754;48.252;11.654;2022-09-12T01:04:30;5.40;;;3.15;;
74269;SDS011;62754;48.252;11.654;2022-09-12T01:09:23;3.92;;;2.63;;
74269;SDS011;62754;48.252;11.654;2022-09-12T01:11:50;4.60;;;2.85;;
74269;SDS011;62754;48.252;11.654;2022-09-12T01:14:17;6.10;;;3.05;;
74269;SDS011;62754;48.252;11.654;2022-09-12T01:16:44;9.68;;;2.83;;
74269;SDS011;62754;48.252;11.654;2022-09-12T01:22:10;5.63;;;3.00;;
74269;SDS011;62754;48.252;11.654;2022-09-12T01:36:14;5.47;;;2.50;;
74269;SDS011;62754;48.252;11.654;2022-09-12T01:41:24;7.85;;;2.92;;
74269;SDS011;62754;48.252;11.654;2022-09-12T01:46:41;5.05;;;2.80;;
74269;SDS011;62754;48.252;11.654;2022-09-12T01:49:15;4.63;;;3.03;;
74269;SDS011;62754;48.252;11.654;2022-09-12T01:54:40;5.25;;;2.80;;
74269;SDS011;62754;48.252;11.654;2022-09-12T01:57:13;6.05;;;3.03;;
74269;SDS011;62754;48.252;11.654;2022-09-12T02:02:27;4.68;;;2.67;;
74269;SDS011;62754;48.252;11.654;2022-09-12T02:07:56;4.85;;;2.60;;
74269;SDS011;62754;48.252;11.654;2022-09-12T02:10:33;4.60;;;2.42;;
74269;SDS011;62754;48.252;11.654;2022-09-12T02:16:18;4.00;;;2.40;;
74269;SDS011;62754;48.252;11.654;2022-09-12T02:18:48;4.20;;;2.67;;
74269;SDS011;62754;48.252;11.654;2022-09-12T02:21:18;4.93;;;2.78;;
74269;SDS011;62754;48.252;11.654;2022-09-12T02:23:47;5.20;;;2.58;;
74269;SDS011;62754;48.252;11.654;2022-09-12T02:26:20;4.75;;;2.50;;
74269;SDS011;62754;48.252;11.654;2022-09-12T02:28:53;4.38;;;2.20;;
74269;SDS011;62754;48.252;11.654;2022-09-12T02:31:23;4.63;;;2.33;;
74269;SDS011;62754;48.252;11.654;2022-09-12T02:34:00;3.55;;;2.20;;
74269;SDS011;62754;48.252;11.654;2022-09-12T02:36:53;5.13;;;2.63;;
74269;SDS011;62754;48.252;11.654;2022-09-12T02:39:27;5.50;;;2.38;;
74269;SDS011;62754;48.252;11.654;2022-09-12T02:41:53;3.72;;;2.38;;
74269;SDS011;62754;48.252;11.654;2022-09-12T02:44:21;3.35;;;2.17;;
74269;SDS011;62754;48.252;11.654;2022-09-12T02:46:50;4.43;;;2.10;;
74269;SDS011;62754;48.252;11.654;2022-09-12T02:49:20;3.28;;;2.10;;
74269;SDS011;62754;48.252;11.654;2022-09-12T02:51:46;3.53;;;2.20;;
74269;SDS011;62754;48.252;11.654;2022-09-12T02:54:13;4.60;;;2.38;;
74269;SDS011;62754;48.252;11.654;2022-09-12T02:56:42;4.80;;;2.35;;
74269;SDS011;62754;48.252;11.654;2022-09-12T02:59:10;3.55;;;2.22;;
74269;SDS011;62754;48.252;11.654;2022-09-12T03:21:03;5.20;;;2.45;;
74269;SDS011;62754;48.252;11.654;2022-09-12T03:26:22;4.43;;;2.45;;
74269;SDS011;62754;48.252;11.654;2022-09-12T03:28:52;3.60;;;2.05;;
74269;SDS011;62754;48.252;11.654;2022-09-12T03:31:20;5.20;;;2.72;;
74269;SDS011;62754;48.252;11.654;2022-09-12T03:33:46;6.57;;;2.47;;
74269;SDS011;62754;48.252;11.654;2022-09-12T03:36:15;4.40;;;2.20;;
74269;SDS011;62754;48.252;11.654;2022-09-12T03:38:53;3.42;;;2.00;;
74269;SDS011;62754;48.252;11.654;2022-09-12T03:41:20;4.85;;;2.10;;
74269;SDS011;62754;48.252;11.654;2022-09-12T03:43:46;3.88;;;2.10;;
74269;SDS011;62754;48.252;11.654;2022-09-12T03:46:12;5.35;;;2.10;;
74269;SDS011;62754;48.252;11.654;2022-09-12T03:48:39;6.20;;;2.35;;
74269;SDS011;62754;48.252;11.654;2022-09-12T03:51:06;3.20;;;1.98;;
74269;SDS011;62754;48.252;11.654;2022-09-12T03:53:34;4.93;;;2.35;;
74269;SDS011;62754;48.252;11.654;2022-09-12T03:56:04;4.00;;;2.33;;
74269;SDS011;62754;48.252;11.654;2022-09-12T03:58:31;3.80;;;2.42;;
74269;SDS011;62754;48.252;11.654;2022-09-12T04:00:57;4.38;;;2.28;;
74269;SDS011;62754;48.252;11.654;2022-09-12T04:03:23;6.15;;;2.30;;
74269;SDS011;62754;48.252;11.654;2022-09-12T04:05:48;3.45;;;2.17;;
74269;SDS011;62754;48.252;11.654;2022-09-12T04:08:14;4.55;;;2.05;;
74269;SDS011;62754;48.252;11.654;2022-09-12T04:10:40;3.17;;;2.10;;
74269;SDS011;62754;48.252;11.654;2022-09-12T04:13:06;5.20;;;2.35;;
74269;SDS011;62754;48.252;11.654;2022-09-12T04:15:32;4.15;;;2.00;;
74269;SDS011;62754;48.252;11.654;2022-09-12T04:17:58;4.88;;;2.83;;
74269;SDS011;62754;48.252;11.654;2022-09-12T04:20:23;5.32;;;3.17;;
74269;SDS011;62754;48.252;11.654;2022-09-12T04:22:49;8.00;;;3.95;;
74269;SDS011;62754;48.252;11.654;2022-09-12T04:25:15;5.95;;;2.60;;
74269;SDS011;62754;48.252;11.654;2022-09-12T04:27:40;3.58;;;2.00;;
74269;SDS011;62754;48.252;11.654;2022-09-12T04:30:06;4.72;;;2.33;;
74269;SDS011;62754;48.252;11.654;2022-09-12T04:32:33;5.18;;;1.98;;
74269;SDS011;62754;48.252;11.654;2022-09-12T04:34:58;3.60;;;2.03;;
74269;SDS011;62754;48.252;11.654;2022-09-12T04:37:24;3.38;;;1.88;;
74269;SDS011;62754;48.252;11.654;2022-09-12T04:39:50;4.75;;;1.83;;
74269;SDS011;62754;48.252;11.654;2022-09-12T04:42:16;3.92;;;2.13;;
74269;SDS011;62754;48.252;11.654;2022-09-12T04:44:42;2.88;;;1.75;;
74269;SDS011;62754;48.252;11.654;2022-09-12T04:47:08;3.40;;;2.15;;
74269;SDS011;62754;48.252;11.654;2022-09-12T04:49:33;3.35;;;1.83;;
74269;SDS011;62754;48.252;11.654;2022-09-12T04:51:59;3.30;;;1.80;;
74269;SDS011;62754;48.252;11.654;2022-09-12T04:54:25;3.63;;;2.30;;
74269;SDS011;62754;48.252;11.654;2022-09-12T04:56:51;3.55;;;2.00;;
74269;SDS011;62754;48.252;11.654;2022-09-12T04:59:18;4.78;;;2.10;;
74269;SDS011;62754;48.252;11.654;2022-09-12T05:01:44;4.40;;;2.20;;
74269;SDS011;62754;48.252;11.654;2022-09-12T05:04:11;3.83;;;2.10;;
74269;SDS011;62754;48.252;11.654;2022-09-12T05:09:04;3.35;;;2.03;;
74269;SDS011;62754;48.252;11.654;2022-09-12T05:11:32;4.05;;;2.08;;
74269;SDS011;62754;48.252;11.654;2022-09-12T05:14:00;3.50;;;2.00;;
74269;SDS011;62754;48.252;11.654;2022-09-12T05:16:26;4.13;;;2.67;;
74269;SDS011;62754;48.252;11.654;2022-09-12T05:21:20;3.72;;;1.90;;
74269;SDS011;62754;48.252;11.654;2022-09-12T05:23:46;3.53;;;1.98;;
74269;SDS011;62754;48.252;11.654;2022-09-12T05:26:15;3.13;;;1.90;;
74269;SDS011;62754;48.252;11.654;2022-09-12T05:28:41;3.20;;;1.88;;
74269;SDS011;62754;48.252;11.654;2022-09-12T05:31:09;4.18;;;2.10;;
74269;SDS011;62754;48.252;11.654;2022-09-12T05:33:46;4.28;;;2.10;;
74269;SDS011;62754;48.252;11.654;2022-09-12T05:36:17;4.50;;;2.17;;
74269;SDS011;62754;48.252;11.654;2022-09-12T05:38:45;3.85;;;2.40;;
74269;SDS011;62754;48.252;11.654;2022-09-12T05:41:13;6.40;;;2.80;;
74269;SDS011;62754;48.252;11.654;2022-09-12T05:43:40;4.88;;;2.45;;
74269;SDS011;62754;48.252;11.654;2022-09-12T05:48:35;3.90;;;2.17;;
74269;SDS011;62754;48.252;11.654;2022-09-12T05:51:02;4.72;;;2.40;;
74269;SDS011;62754;48.252;11.654;2022-09-12T05:53:31;5.13;;;2.30;;
74269;SDS011;62754;48.252;11.654;2022-09-12T05:56:01;4.80;;;2.33;;
74269;SDS011;62754;48.252;11.654;2022-09-12T05:58:37;6.32;;;2.85;;
74269;SDS011;62754;48.252;11.654;2022-09-12T06:01:09;5.28;;;2.38;;
74269;SDS011;62754;48.252;11.654;2022-09-12T06:03:43;5.03;;;2.60;;
74269;SDS011;62754;48.252;11.654;2022-09-12T06:06:09;4.63;;;2.78;;
74269;SDS011;62754;48.252;11.654;2022-09-12T06:08:36;5.40;;;2.30;;
74269;SDS011;62754;48.252;11.654;2022-09-12T06:11:02;4.47;;;2.40;;
74269;SDS011;62754;48.252;11.654;2022-09-12T06:13:33;4.35;;;2.55;;
74269;SDS011;62754;48.252;11.654;2022-09-12T06:16:07;5.78;;;2.75;;
74269;SDS011;62754;48.252;11.654;2022-09-12T06:18:35;5.63;;;2.38;;
74269;SDS011;62754;48.252;11.654;2022-09-12T06:21:09;4.15;;;2.47;;
74269;SDS011;62754;48.252;11.654;2022-09-12T06:23:36;4.32;;;2.40;;
74269;SDS011;62754;48.252;11.654;2022-09-12T06:26:04;5.28;;;2.83;;
74269;SDS011;62754;48.252;11.654;2022-09-12T06:28:31;7.18;;;2.75;;
74269;SDS011;62754;48.252;11.654;2022-09-12T06:31:09;4.03;;;2.28;;
74269;SDS011;62754;48.252;11.654;2022-09-12T06:33:40;3.22;;;2.13;;
74269;SDS011;62754;48.252;11.654;2022-09-12T06:36:14;4.95;;;2.25;;
74269;SDS011;62754;48.252;11.654;2022-09-12T06:38:42;4.00;;;2.40;;
74269;SDS011;62754;48.252;11.654;2022-09-12T06:41:09;4.63;;;2.65;;
74269;SDS011;62754;48.252;11.654;2022-09-12T06:43:36;4.55;;;2.60;;
74269;SDS011;62754;48.252;11.654;2022-09-12T06:46:02;3.58;;;2.15;;
74269;SDS011;62754;48.252;11.654;2022-09-12T06:48:29;3.45;;;2.17;;
74269;SDS011;62754;48.252;11.654;2022-09-12T06:51:02;4.45;;;2.45;;
74269;SDS011;62754;48.252;11.654;2022-09-12T06:53:30;4.10;;;2.50;;
74269;SDS011;62754;48.252;11.654;2022-09-12T06:55:57;4.13;;;2.30;;
74269;SDS011;62754;48.252;11.654;2022-09-12T06:58:27;4.40;;;2.40;;
74269;SDS011;62754;48.252;11.654;2022-09-12T07:01:07;4.03;;;2.83;;
74269;SDS011;62754;48.252;11.654;2022-09-12T07:03:35;6.18;;;2.30;;
74269;SDS011;62754;48.252;11.654;2022-09-12T07:06:02;4.78;;;2.38;;
74269;SDS011;62754;48.252;11.654;2022-09-12T07:08:29;5.45;;;2.67;;
74269;SDS011;62754;48.252;11.654;2022-09-12T07:10:55;4.30;;;2.28;;
74269;SDS011;62754;48.252;11.654;2022-09-12T07:13:21;5.70;;;2.38;;
74269;SDS011;62754;48.252;11.654;2022-09-12T07:15:46;5.88;;;2.95;;
74269;SDS011;62754;48.252;11.654;2022-09-12T07:18:12;5.63;;;2.85;;
74269;SDS011;62754;48.252;11.654;2022-09-12T07:20:38;6.38;;;3.30;;
74269;SDS011;62754;48.252;11.654;2022-09-12T07:23:03;5.55;;;2.70;;
74269;SDS011;62754;48.252;11.654;2022-09-12T07:25:29;6.13;;;2.90;;
74269;SDS011;62754;48.252;11.654;2022-09-12T07:27:55;5.00;;;2.58;;
74269;SDS011;62754;48.252;11.654;2022-09-12T07:30:21;4.82;;;2.47;;
74269;SDS011;62754;48.252;11.654;2022-09-12T07:32:50;10.50;;;3.10;;
74269;SDS011;62754;48.252;11.654;2022-09-12T07:35:17;4.95;;;2.70;;
74269;SDS011;62754;48.252;11.654;2022-09-12T07:37:43;4.22;;;2.40;;
74269;SDS011;62754;48.252;11.654;2022-09-12T07:40:09;3.67;;;1.88;;
74269;SDS011;62754;48.252;11.654;2022-09-12T07:42:34;5.78;;;2.00;;
74269;SDS011;62754;48.252;11.654;2022-09-12T07:45:00;3.55;;;2.15;;
74269;SDS011;62754;48.252;11.654;2022-09-12T07:47:26;3.00;;;1.70;;
74269;SDS011;62754;48.252;11.654;2022-09-12T07:49:52;3.00;;;1.63;;
74269;SDS011;62754;48.252;11.654;2022-09-12T07:52:17;3.75;;;2.05;;
74269;SDS011;62754;48.252;11.654;2022-09-12T07:54:43;4.50;;;1.48;;
74269;SDS011;62754;48.252;11.654;2022-09-12T07:57:09;3.45;;;1.60;;
74269;SDS011;62754;48.252;11.654;2022-09-12T07:59:35;3.28;;;1.38;;
74269;SDS011;62754;48.252;11.654;2022-09-12T08:02:00;2.40;;;1.30;;
74269;SDS011;62754;48.252;11.654;2022-09-12T08:04:26;3.45;;;1.55;;
74269;SDS011;62754;48.252;11.654;2022-09-12T08:06:52;3.70;;;1.60;;
74269;SDS011;62754;48.252;11.654;2022-09-12T08:09:18;3.25;;;1.58;;
74269;SDS011;62754;48.252;11.654;2022-09-12T08:11:43;3.50;;;1.60;;
74269;SDS011;62754;48.252;11.654;2022-09-12T08:14:09;3.17;;;1.42;;
74269;SDS011;62754;48.252;11.654;2022-09-12T08:16:35;3.92;;;1.67;;
74269;SDS011;62754;48.252;11.654;2022-09-12T08:19:01;2.92;;;1.75;;
74269;SDS011;62754;48.252;11.654;2022-09-12T08:21:28;3.00;;;1.80;;
74269;SDS011;62754;48.252;11.654;2022-09-12T08:23:56;2.90;;;1.70;;
74269;SDS011;62754;48.252;11.654;2022-09-12T08:26:24;3.38;;;1.60;;
74269;SDS011;62754;48.252;11.654;2022-09-12T08:28:49;3.13;;;1.90;;
74269;SDS011;62754;48.252;11.654;2022-09-12T08:31:17;3.15;;;1.80;;
74269;SDS011;62754;48.252;11.654;2022-09-12T08:33:44;2.65;;;1.80;;
74269;SDS011;62754;48.252;11.654;2022-09-12T08:36:13;3.55;;;1.70;;
74269;SDS011;62754;48.252;11.654;2022-09-12T08:38:52;2.78;;;1.80;;
74269;SDS011;62754;48.252;11.654;2022-09-12T08:49:57;3.55;;;1.70;;
74269;SDS011;62754;48.252;11.654;2022-09-12T08:58:21;2.10;;;1.35;;
74269;SDS011;62754;48.252;11.654;2022-09-12T09:04:06;2.72;;;1.40;;
74269;SDS011;62754;48.252;11.654;2022-09-12T09:12:25;3.45;;;1.70;;
74269;SDS011;62754;48.252;11.654;2022-09-12T09:23:10;5.47;;;2.45;;
74269;SDS011;62754;48.252;11.654;2022-09-12T09:31:20;3.85;;;2.10;;
74269;SDS011;62754;48.252;11.654;2022-09-12T09:33:48;3.42;;;2.28;;
74269;SDS011;62754;48.252;11.654;2022-09-12T09:36:49;4.28;;;2.47;;
74269;SDS011;62754;48.252;11.654;2022-09-12T09:39:16;3.05;;;2.15;;
74269;SDS011;62754;48.252;11.654;2022-09-12T09:44:28;4.90;;;2.30;;
74269;SDS011;62754;48.252;11.654;2022-09-12T09:46:54;4.47;;;2.33;;
74269;SDS011;62754;48.252;11.654;2022-09-12T09:49:26;3.67;;;2.42;;
74269;SDS011;62754;48.252;11.654;2022-09-12T09:51:56;3.47;;;1.98;;
74269;SDS011;62754;48.252;11.654;2022-09-12T09:54:24;4.20;;;2.00;;
74269;SDS011;62754;48.252;11.654;2022-09-12T09:56:54;3.78;;;1.95;;
74269;SDS011;62754;48.252;11.654;2022-09-12T10:01:54;3.55;;;2.17;;
74269;SDS011;62754;48.252;11.654;2022-09-12T10:04:25;4.15;;;2.22;;
74269;SDS011;62754;48.252;11.654;2022-09-12T10:06:55;5.53;;;1.98;;
74269;SDS011;62754;48.252;11.654;2022-09-12T10:11:51;4.63;;;2.42;;
74269;SDS011;62754;48.252;11.654;2022-09-12T10:14:37;3.05;;;2.10;;
74269;SDS011;62754;48.252;11.654;2022-09-12T10:17:20;2.92;;;1.95;;
74269;SDS011;62754;48.252;11.654;2022-09-12T10:19:49;2.83;;;1.88;;
74269;SDS011;62754;48.252;11.654;2022-09-12T10:22:16;3.70;;;1.80;;
74269;SDS011;62754;48.252;11.654;2022-09-12T10:24:51;3.05;;;2.00;;
74269;SDS011;62754;48.252;11.654;2022-09-12T10:27:22;3.17;;;2.08;;
74269;SDS011;62754;48.252;11.654;2022-09-12T10:30:05;3.75;;;1.98;;
74269;SDS011;62754;48.252;11.654;2022-09-12T10:32:45;3.28;;;1.42;;
74269;SDS011;62754;48.252;11.654;2022-09-12T10:35:20;3.15;;;2.15;;
74269;SDS011;62754;48.252;11.654;2022-09-12T10:40:23;3.22;;;1.60;;
74269;SDS011;62754;48.252;11.654;2022-09-12T10:42:52;2.30;;;1.60;;
74269;SDS011;62754;48.252;11.654;2022-09-12T10:45:36;4.15;;;1.60;;
74269;SDS011;62754;48.252;11.654;2022-09-12T10:48:26;3.65;;;1.60;;
74269;SDS011;62754;48.252;11.654;2022-09-12T10:50:47;3.33;;;1.70;;
74269;SDS011;62754;48.252;11.654;2022-09-12T10:56:11;3.60;;;1.50;;
74269;SDS011;62754;48.252;11.654;2022-09-12T10:59:02;2.00;;;1.38;;
74269;SDS011;62754;48.252;11.654;2022-09-12T11:01:48;2.38;;;1.70;;
74269;SDS011;62754;48.252;11.654;2022-09-12T11:18:55;2.42;;;1.70;;
74269;SDS011;62754;48.252;11.654;2022-09-12T11:21:47;2.53;;;1.50;;
74269;SDS011;62754;48.252;11.654;2022-09-12T11:24:20;2.47;;;1.70;;
74269;SDS011;62754;48.252;11.654;2022-09-12T11:29:42;2.60;;;1.48;;
74269;SDS011;62754;48.252;11.654;2022-09-12T11:32:24;3.17;;;1.40;;
74269;SDS011;62754;48.252;11.654;2022-09-12T11:45:53;2.67;;;1.10;;
74269;SDS011;62754;48.252;11.654;2022-09-12T11:50:59;2.47;;;1.17;;
74269;SDS011;62754;48.252;11.654;2022-09-12T11:53:30;2.78;;;1.10;;
74269;SDS011;62754;48.252;11.654;2022-09-12T11:56:19;2.65;;;1.23;;
74269;SDS011;62754;48.252;11.654;2022-09-12T11:58:49;2.88;;;1.38;;
74269;SDS011;62754;48.252;11.654;2022-09-12T12:01:20;2.28;;;1.20;;
74269;SDS011;62754;48.252;11.654;2022-09-12T12:03:49;2.20;;;1.00;;
74269;SDS011;62754;48.252;11.654;2022-09-12T12:06:29;2.63;;;1.20;;
74269;SDS011;62754;48.252;11.654;2022-09-12T12:08:57;2.67;;;1.20;;
74269;SDS011;62754;48.252;11.654;2022-09-12T12:13:50;2.30;;;1.02;;
74269;SDS011;62754;48.252;11.654;2022-09-12T12:21:39;1.90;;;1.10;;
74269;SDS011;62754;48.252;11.654;2022-09-12T12:34:26;1.67;;;1.10;;
74269;SDS011;62754;48.252;11.654;2022-09-12T12:36:57;2.20;;;1.10;;
74269;SDS011;62754;48.252;11.654;2022-09-12T12:42:08;2.67;;;1.10;;
74269;SDS011;62754;48.252;11.654;2022-09-12T12:49:52;2.67;;;1.20;;
74269;SDS011;62754;48.252;11.654;2022-09-12T12:52:23;2.63;;;0.90;;
74269;SDS011;62754;48.252;11.654;2022-09-12T12:54:53;2.05;;;1.30;;
74269;SDS011;62754;48.252;11.654;2022-09-12T12:57:27;2.83;;;1.52;;
74269;SDS011;62754;48.252;11.654;2022-09-12T12:59:59;2.00;;;1.48;;
74269;SDS011;62754;48.252;11.654;2022-09-12T13:02:31;2.85;;;1.40;;
74269;SDS011;62754;48.252;11.654;2022-09-12T13:05:04;2.10;;;1.42;;
74269;SDS011;62754;48.252;11.654;2022-09-12T13:07:40;2.70;;;1.27;;
74269;SDS011;62754;48.252;11.654;2022-09-12T13:10:18;2.25;;;1.02;;
74269;SDS011;62754;48.252;11.654;2022-09-12T13:12:49;3.55;;;1.10;;
74269;SDS011;62754;48.252;11.654;2022-09-12T13:18:00;2.72;;;1.30;;
74269;SDS011;62754;48.252;11.654;2022-09-12T13:20:35;1.95;;;1.20;;
74269;SDS011;62754;48.252;11.654;2022-09-12T13:23:24;2.15;;;1.23;;
74269;SDS011;62754;48.252;11.654;2022-09-12T13:25:52;2.63;;;1.40;;
74269;SDS011;62754;48.252;11.654;2022-09-12T13:28:23;2.40;;;1.30;;
74269;SDS011;62754;48.252;11.654;2022-09-12T13:33:36;2.67;;;1.40;;
74269;SDS011;62754;48.252;11.654;2022-09-12T13:39:01;2.15;;;1.15;;
74269;SDS011;62754;48.252;11.654;2022-09-12T13:43:55;1.45;;;1.00;;
74269;SDS011;62754;48.252;11.654;2022-09-12T13:46:25;2.47;;;1.42;;
74269;SDS011;62754;48.252;11.654;2022-09-12T13:48:54;2.58;;;1.50;;
74269;SDS011;62754;48.252;11.654;2022-09-12T13:51:25;2.58;;;1.60;;
74269;SDS011;62754;48.252;11.654;2022-09-12T13:53:54;1.63;;;0.90;;
74269;SDS011;62754;48.252;11.654;2022-09-12T13:56:24;1.88;;;1.23;;
74269;SDS011;62754;48.252;11.654;2022-09-12T13:58:51;2.40;;;1.10;;
74269;SDS011;62754;48.252;11.654;2022-09-12T14:01:17;2.22;;;1.00;;
74269;SDS011;62754;48.252;11.654;2022-09-12T14:03:52;1.42;;;0.88;;
74269;SDS011;62754;48.252;11.654;2022-09-12T14:06:19;2.28;;;1.00;;
74269;SDS011;62754;48.252;11.654;2022-09-12T14:08:45;2.78;;;1.02;;
74269;SDS011;62754;48.252;11.654;2022-09-12T14:11:17;1.90;;;1.20;;
74269;SDS011;62754;48.252;11.654;2022-09-12T14:13:48;1.75;;;1.00;;
74269;SDS011;62754;48.252;11.654;2022-09-12T14:16:14;1.80;;;1.10;;
74269;SDS011;62754;48.252;11.654;2022-09-12T14:18:40;1.40;;;0.98;;
74269;SDS011;62754;48.252;11.654;2022-09-12T14:21:07;1.42;;;0.88;;
74269;SDS011;62754;48.252;11.654;2022-09-12T14:23:36;2.05;;;1.08;;
74269;SDS011;62754;48.252;11.654;2022-09-12T14:26:07;1.90;;;1.20;;
74269;SDS011;62754;48.252;11.654;2022-09-12T14:28:35;2.28;;;1.02;;
74269;SDS011;62754;48.252;11.654;2022-09-12T14:31:04;3.28;;;1.20;;
74269;SDS011;62754;48.252;11.654;2022-09-12T14:33:51;1.58;;;1.00;;
74269;SDS011;62754;48.252;11.654;2022-09-12T14:36:35;2.75;;;1.13;;
74269;SDS011;62754;48.252;11.654;2022-09-12T14:39:13;2.30;;;1.20;;
74269;SDS011;62754;48.252;11.654;2022-09-12T14:41:49;1.83;;;0.80;;
74269;SDS011;62754;48.252;11.654;2022-09-12T14:44:18;1.60;;;0.90;;
74269;SDS011;62754;48.252;11.654;2022-09-12T14:46:47;1.30;;;0.80;;
74269;SDS011;62754;48.252;11.654;2022-09-12T14:52:04;1.60;;;0.98;;
74269;SDS011;62754;48.252;11.654;2022-09-12T15:04:38;2.08;;;1.33;;
74269;SDS011;62754;48.252;11.654;2022-09-12T15:07:14;1.85;;;1.30;;
74269;SDS011;62754;48.252;11.654;2022-09-12T15:09:46;2.28;;;1.30;;
74269;SDS011;62754;48.252;11.654;2022-09-12T15:12:12;1.85;;;1.20;;
74269;SDS011;62754;48.252;11.654;2022-09-12T15:14:37;1.85;;;1.15;;
74269;SDS011;62754;48.252;11.654;2022-09-12T15:17:03;2.20;;;1.02;;
74269;SDS011;62754;48.252;11.654;2022-09-12T15:19:29;2.83;;;1.90;;
74269;SDS011;62754;48.252;11.654;2022-09-12T15:21:55;2.05;;;1.40;;
74269;SDS011;62754;48.252;11.654;2022-09-12T15:24:21;2.00;;;1.10;;
74269;SDS011;62754;48.252;11.654;2022-09-12T15:26:46;2.15;;;1.10;;
74269;SDS011;62754;48.252;11.654;2022-09-12T15:29:12;3.30;;;1.20;;
74269;SDS011;62754;48.252;11.654;2022-09-12T15:31:38;1.73;;;1.00;;
74269;SDS011;62754;48.252;11.654;2022-09-12T15:34:04;1.73;;;0.98;;
74269;SDS011;62754;48.252;11.654;2022-09-12T15:36:30;2.30;;;1.20;;
74269;SDS011;62754;48.252;11.654;2022-09-12T15:38:56;2.47;;;1.10;;
74269;SDS011;62754;48.252;11.654;2022-09-12T15:41:32;2.53;;;1.20;;
74269;SDS011;62754;48.252;11.654;2022-09-12T15:43:59;2.38;;;1.30;;
74269;SDS011;62754;48.252;11.654;2022-09-12T15:46:25;2.20;;;1.40;;
74269;SDS011;62754;48.252;11.654;2022-09-12T15:48:51;2.25;;;1.48;;
74269;SDS011;62754;48.252;11.654;2022-09-12T15:51:17;2.20;;;1.33;;
74269;SDS011;62754;48.252;11.654;2022-09-12T15:53:45;2.50;;;1.13;;
74269;SDS011;62754;48.252;11.654;2022-09-12T15:56:13;2.20;;;1.10;;
74269;SDS011;62754;48.252;11.654;2022-09-12T15:58:40;2.35;;;1.02;;
74269;SDS011;62754;48.252;11.654;2022-09-12T16:01:08;2.75;;;1.50;;
74269;SDS011;62754;48.252;11.654;2022-09-12T16:03:36;3.05;;;1.60;;
74269;SDS011;62754;48.252;11.654;2022-09-12T16:06:02;3.72;;;1.48;;
74269;SDS011;62754;48.252;11.654;2022-09-12T16:08:29;2.53;;;1.42;;
74269;SDS011;62754;48.252;11.654;2022-09-12T16:10:56;1.77;;;1.17;;
74269;SDS011;62754;48.252;11.654;2022-09-12T16:13:31;2.03;;;1.13;;
74269;SDS011;62754;48.252;11.654;2022-09-12T16:15:57;2.65;;;1.20;;
74269;SDS011;62754;48.252;11.654;2022-09-12T16:18:24;2.08;;;1.42;;
74269;SDS011;62754;48.252;11.654;2022-09-12T16:23:16;3.03;;;1.50;;
74269;SDS011;62754;48.252;11.654;2022-09-12T16:28:07;2.65;;;1.67;;
74269;SDS011;62754;48.252;11.654;2022-09-12T16:32:59;3.95;;;1.95;;
74269;SDS011;62754;48.252;11.654;2022-09-12T16:35:25;2.60;;;1.50;;
74269;SDS011;62754;48.252;11.654;2022-09-12T16:37:50;2.88;;;1.50;;
74269;SDS011;62754;48.252;11.654;2022-09-12T16:40:16;3.60;;;1.38;;
74269;SDS011;62754;48.252;11.654;2022-09-12T16:42:42;2.20;;;1.45;;
74269;SDS011;62754;48.252;11.654;2022-09-12T16:45:08;2.50;;;1.60;;
74269;SDS011;62754;48.252;11.654;2022-09-12T16:47:34;2.03;;;1.42;;
74269;SDS011;62754;48.252;11.654;2022-09-12T16:50:00;3.40;;;1.85;;
74269;SDS011;62754;48.252;11.654;2022-09-12T16:52:26;3.30;;;1.95;;
74269;SDS011;62754;48.252;11.654;2022-09-12T16:54:52;2.60;;;1.80;;
74269;SDS011;62754;48.252;11.654;2022-09-12T16:57:17;2.80;;;1.70;;
74269;SDS011;62754;48.252;11.654;2022-09-12T16:59:43;2.42;;;1.50;;
74269;SDS011;62754;48.252;11.654;2022-09-12T17:02:12;2.90;;;1.60;;
74269;SDS011;62754;48.252;11.654;2022-09-12T17:04:38;3.60;;;2.10;;
74269;SDS011;62754;48.252;11.654;2022-09-12T17:07:04;2.85;;;1.63;;
74269;SDS011;62754;48.252;11.654;2022-09-12T17:09:30;2.40;;;1.77;;
74269;SDS011;62754;48.252;11.654;2022-09-12T17:11:56;2.85;;;1.80;;
74269;SDS011;62754;48.252;11.654;2022-09-12T17:14:21;3.55;;;1.95;;
74269;SDS011;62754;48.252;11.654;2022-09-12T17:16:48;4.72;;;2.03;;
74269;SDS011;62754;48.252;11.654;2022-09-12T17:19:15;5.00;;;2.10;;
74269;SDS011;62754;48.252;11.654;2022-09-12T17:21:43;2.95;;;1.77;;
74269;SDS011;62754;48.252;11.654;2022-09-12T17:26:42;4.07;;;1.88;;
74269;SDS011;62754;48.252;11.654;2022-09-12T17:31:35;2.65;;;1.63;;
74269;SDS011;62754;48.252;11.654;2022-09-12T17:34:01;4.72;;;1.90;;
74269;SDS011;62754;48.252;11.654;2022-09-12T17:36:27;2.88;;;1.90;;
74269;SDS011;62754;48.252;11.654;2022-09-12T17:38:53;2.70;;;1.90;;
74269;SDS011;62754;48.252;11.654;2022-09-12T17:41:20;3.38;;;2.10;;
74269;SDS011;62754;48.252;11.654;2022-09-12T17:43:52;4.82;;;2.22;;
74269;SDS011;62754;48.252;11.654;2022-09-12T17:46:20;2.78;;;1.95;;
74269;SDS011;62754;48.252;11.654;2022-09-12T17:48:53;4.07;;;1.77;;
74269;SDS011;62754;48.252;11.654;2022-09-12T17:51:21;3.20;;;2.08;;
74269;SDS011;62754;48.252;11.654;2022-09-12T17:53:48;2.63;;;1.80;;
74269;SDS011;62754;48.252;11.654;2022-09-12T17:56:13;4.47;;;2.13;;
74269;SDS011;62754;48.252;11.654;2022-09-12T17:58:39;3.83;;;2.13;;
74269;SDS011;62754;48.252;11.654;2022-09-12T18:01:11;3.85;;;2.03;;
74269;SDS011;62754;48.252;11.654;2022-09-12T18:03:38;3.25;;;2.20;;
74269;SDS011;62754;48.252;11.654;2022-09-12T18:06:04;3.45;;;2.30;;
74269;SDS011;62754;48.252;11.654;2022-09-12T18:08:29;2.88;;;2.00;;
74269;SDS011;62754;48.252;11.654;2022-09-12T18:11:02;4.93;;;2.40;;
74269;SDS011;62754;48.252;11.654;2022-09-12T18:13:34;3.20;;;1.95;;
74269;SDS011;62754;48.252;11.654;2022-09-12T18:16:04;2.97;;;2.10;;
74269;SDS011;62754;48.252;11.654;2022-09-12T18:18:31;5.47;;;2.20;;